sensor_id;sensor_type;location;lat;lon;timestamp;P1;durP1;ratioP1;P2;durP2;ratioP2
6259;SDS011;3163;51.516;4.000;2022-09-24T00:00:43;3.50;;;3.17;;
6259;SDS011;3163;51.516;4.000;2022-09-24T00:03:12;3.97;;;3.37;;
6259;SDS011;3163;51.516;4.000;2022-09-24T00:05:38;3.23;;;2.57;;
6259;SDS011;3163;51.516;4.000;2022-09-24T00:08:07;3.57;;;2.90;;
6259;SDS011;3163;51.516;4.000;2022-09-24T00:10:37;4.03;;;2.73;;
6259;SDS011;3163;51.516;4.000;2022-09-24T00:13:03;4.53;;;2.80;;
6259;SDS011;3163;51.516;4.000;2022-09-24T00:15:30;4.30;;;3.13;;
6259;SDS011;3163;51.516;4.000;2022-09-24T00:17:56;2.87;;;2.50;;
6259;SDS011;3163;51.516;4.000;2022-09-24T00:20:22;2.93;;;2.53;;
6259;SDS011;3163;51.516;4.000;2022-09-24T00:22:48;4.37;;;2.67;;
6259;SDS011;3163;51.516;4.000;2022-09-24T00:25:14;2.80;;;2.43;;
6259;SDS011;3163;51.516;4.000;2022-09-24T00:27:59;3.37;;;2.90;;
6259;SDS011;3163;51.516;4.000;2022-09-24T00:30:25;2.97;;;2.27;;
6259;SDS011;3163;51.516;4.000;2022-09-24T00:32:51;4.10;;;3.13;;
6259;SDS011;3163;51.516;4.000;2022-09-24T00:35:17;3.87;;;2.37;;
6259;SDS011;3163;51.516;4.000;2022-09-24T00:37:43;2.73;;;2.40;;
6259;SDS011;3163;51.516;4.000;2022-09-24T00:40:09;3.50;;;2.80;;
6259;SDS011;3163;51.516;4.000;2022-09-24T00:42:35;3.83;;;3.03;;
6259;SDS011;3163;51.516;4.000;2022-09-24T00:45:01;3.43;;;3.13;;
6259;SDS011;3163;51.516;4.000;2022-09-24T00:49:57;3.07;;;2.77;;
6259;SDS011;3163;51.516;4.000;2022-09-24T00:52:24;3.53;;;2.70;;
6259;SDS011;3163;51.516;4.000;2022-09-24T00:54:50;2.93;;;2.60;;
6259;SDS011;3163;51.516;4.000;2022-09-24T00:57:17;3.93;;;2.80;;
6259;SDS011;3163;51.516;4.000;2022-09-24T00:59:44;2.97;;;2.60;;
6259;SDS011;3163;51.516;4.000;2022-09-24T01:02:10;3.53;;;2.70;;
6259;SDS011;3163;51.516;4.000;2022-09-24T01:04:36;2.87;;;2.63;;
6259;SDS011;3163;51.516;4.000;2022-09-24T01:07:02;4.10;;;2.90;;
6259;SDS011;3163;51.516;4.000;2022-09-24T01:09:28;4.32;;;3.30;;
6259;SDS011;3163;51.516;4.000;2022-09-24T01:11:59;3.43;;;2.60;;
6259;SDS011;3163;51.516;4.000;2022-09-24T01:14:30;3.37;;;2.40;;
6259;SDS011;3163;51.516;4.000;2022-09-24T01:22:41;5.57;;;3.13;;
6259;SDS011;3163;51.516;4.000;2022-09-24T01:30:37;3.10;;;2.80;;
6259;SDS011;3163;51.516;4.000;2022-09-24T01:33:06;3.07;;;2.70;;
6259;SDS011;3163;51.516;4.000;2022-09-24T01:35:35;2.93;;;2.73;;
6259;SDS011;3163;51.516;4.000;2022-09-24T01:38:03;3.53;;;2.37;;
6259;SDS011;3163;51.516;4.000;2022-09-24T01:40:32;3.27;;;2.90;;
6259;SDS011;3163;51.516;4.000;2022-09-24T01:42:58;3.50;;;2.60;;
6259;SDS011;3163;51.516;4.000;2022-09-24T01:45:25;2.90;;;2.57;;
6259;SDS011;3163;51.516;4.000;2022-09-24T01:47:55;2.50;;;2.30;;
6259;SDS011;3163;51.516;4.000;2022-09-24T01:50:21;2.80;;;2.50;;
6259;SDS011;3163;51.516;4.000;2022-09-24T01:53:09;2.95;;;2.58;;
6259;SDS011;3163;51.516;4.000;2022-09-24T01:55:38;3.07;;;2.50;;
6259;SDS011;3163;51.516;4.000;2022-09-24T01:58:07;3.23;;;2.93;;
6259;SDS011;3163;51.516;4.000;2022-09-24T02:00:35;3.17;;;2.80;;
6259;SDS011;3163;51.516;4.000;2022-09-24T02:03:18;3.33;;;3.00;;
6259;SDS011;3163;51.516;4.000;2022-09-24T02:05:49;2.83;;;2.60;;
6259;SDS011;3163;51.516;4.000;2022-09-24T02:08:20;6.60;;;3.53;;
6259;SDS011;3163;51.516;4.000;2022-09-24T02:13:15;3.07;;;2.60;;
6259;SDS011;3163;51.516;4.000;2022-09-24T02:15:44;4.20;;;2.93;;
6259;SDS011;3163;51.516;4.000;2022-09-24T02:18:11;2.47;;;2.27;;
6259;SDS011;3163;51.516;4.000;2022-09-24T02:20:39;3.67;;;3.37;;
6259;SDS011;3163;51.516;4.000;2022-09-24T02:23:07;3.90;;;2.73;;
6259;SDS011;3163;51.516;4.000;2022-09-24T02:25:41;3.60;;;3.30;;
6259;SDS011;3163;51.516;4.000;2022-09-24T02:28:07;3.13;;;2.43;;
6259;SDS011;3163;51.516;4.000;2022-09-24T02:30:36;3.33;;;2.67;;
6259;SDS011;3163;51.516;4.000;2022-09-24T02:33:05;3.37;;;2.97;;
6259;SDS011;3163;51.516;4.000;2022-09-24T02:35:53;3.67;;;3.37;;
6259;SDS011;3163;51.516;4.000;2022-09-24T02:38:19;2.93;;;2.63;;
6259;SDS011;3163;51.516;4.000;2022-09-24T02:40:45;4.57;;;3.00;;
6259;SDS011;3163;51.516;4.000;2022-09-24T02:43:12;3.23;;;2.80;;
6259;SDS011;3163;51.516;4.000;2022-09-24T02:45:38;2.80;;;2.60;;
6259;SDS011;3163;51.516;4.000;2022-09-24T02:48:04;3.47;;;3.13;;
6259;SDS011;3163;51.516;4.000;2022-09-24T02:50:30;3.10;;;2.87;;
6259;SDS011;3163;51.516;4.000;2022-09-24T02:52:55;3.27;;;2.83;;
6259;SDS011;3163;51.516;4.000;2022-09-24T02:55:22;2.67;;;2.47;;
6259;SDS011;3163;51.516;4.000;2022-09-24T02:57:48;3.70;;;2.93;;
6259;SDS011;3163;51.516;4.000;2022-09-24T03:00:14;3.57;;;2.40;;
6259;SDS011;3163;51.516;4.000;2022-09-24T03:02:41;2.60;;;2.30;;
6259;SDS011;3163;51.516;4.000;2022-09-24T03:05:07;2.97;;;2.67;;
6259;SDS011;3163;51.516;4.000;2022-09-24T03:07:34;2.77;;;2.33;;
6259;SDS011;3163;51.516;4.000;2022-09-24T03:10:00;2.83;;;2.53;;
6259;SDS011;3163;51.516;4.000;2022-09-24T03:12:26;2.60;;;2.40;;
6259;SDS011;3163;51.516;4.000;2022-09-24T03:14:52;4.63;;;2.77;;
6259;SDS011;3163;51.516;4.000;2022-09-24T03:17:17;2.13;;;2.00;;
6259;SDS011;3163;51.516;4.000;2022-09-24T03:19:43;2.67;;;2.47;;
6259;SDS011;3163;51.516;4.000;2022-09-24T03:22:10;3.07;;;2.77;;
6259;SDS011;3163;51.516;4.000;2022-09-24T03:24:36;3.10;;;2.75;;
6259;SDS011;3163;51.516;4.000;2022-09-24T03:27:02;2.80;;;2.60;;
6259;SDS011;3163;51.516;4.000;2022-09-24T03:29:28;2.03;;;1.87;;
6259;SDS011;3163;51.516;4.000;2022-09-24T03:32:12;3.28;;;2.70;;
6259;SDS011;3163;51.516;4.000;2022-09-24T03:34:38;2.67;;;2.47;;
6259;SDS011;3163;51.516;4.000;2022-09-24T03:37:04;2.40;;;2.20;;
6259;SDS011;3163;51.516;4.000;2022-09-24T03:39:31;2.90;;;2.37;;
6259;SDS011;3163;51.516;4.000;2022-09-24T03:41:56;2.37;;;2.17;;
6259;SDS011;3163;51.516;4.000;2022-09-24T03:44:22;3.30;;;2.60;;
6259;SDS011;3163;51.516;4.000;2022-09-24T03:46:49;2.50;;;2.30;;
6259;SDS011;3163;51.516;4.000;2022-09-24T03:49:15;3.00;;;2.30;;
6259;SDS011;3163;51.516;4.000;2022-09-24T03:51:41;2.63;;;2.23;;
6259;SDS011;3163;51.516;4.000;2022-09-24T03:54:07;2.70;;;2.27;;
6259;SDS011;3163;51.516;4.000;2022-09-24T03:56:33;2.40;;;2.20;;
6259;SDS011;3163;51.516;4.000;2022-09-24T03:58:59;2.23;;;2.03;;
6259;SDS011;3163;51.516;4.000;2022-09-24T04:01:25;2.30;;;2.20;;
6259;SDS011;3163;51.516;4.000;2022-09-24T04:03:53;2.73;;;2.40;;
6259;SDS011;3163;51.516;4.000;2022-09-24T04:06:18;4.10;;;2.27;;
6259;SDS011;3163;51.516;4.000;2022-09-24T04:08:44;3.00;;;2.40;;
6259;SDS011;3163;51.516;4.000;2022-09-24T04:11:11;4.20;;;3.17;;
6259;SDS011;3163;51.516;4.000;2022-09-24T04:13:37;2.30;;;2.10;;
6259;SDS011;3163;51.516;4.000;2022-09-24T04:16:03;2.30;;;2.10;;
6259;SDS011;3163;51.516;4.000;2022-09-24T04:18:29;2.65;;;2.42;;
6259;SDS011;3163;51.516;4.000;2022-09-24T04:20:56;2.27;;;2.07;;
6259;SDS011;3163;51.516;4.000;2022-09-24T04:23:22;3.63;;;2.60;;
6259;SDS011;3163;51.516;4.000;2022-09-24T04:25:48;2.63;;;2.43;;
6259;SDS011;3163;51.516;4.000;2022-09-24T04:28:14;3.07;;;2.00;;
6259;SDS011;3163;51.516;4.000;2022-09-24T04:30:40;2.93;;;2.63;;
6259;SDS011;3163;51.516;4.000;2022-09-24T04:33:07;2.37;;;2.17;;
6259;SDS011;3163;51.516;4.000;2022-09-24T04:35:33;2.40;;;2.17;;
6259;SDS011;3163;51.516;4.000;2022-09-24T04:38:00;2.33;;;2.13;;
6259;SDS011;3163;51.516;4.000;2022-09-24T04:40:26;3.83;;;2.57;;
6259;SDS011;3163;51.516;4.000;2022-09-24T04:42:52;2.20;;;2.00;;
6259;SDS011;3163;51.516;4.000;2022-09-24T04:45:18;2.17;;;1.97;;
6259;SDS011;3163;51.516;4.000;2022-09-24T04:47:45;2.60;;;2.23;;
6259;SDS011;3163;51.516;4.000;2022-09-24T04:50:19;2.77;;;2.47;;
6259;SDS011;3163;51.516;4.000;2022-09-24T04:52:46;3.87;;;2.23;;
6259;SDS011;3163;51.516;4.000;2022-09-24T04:55:12;2.20;;;2.00;;
6259;SDS011;3163;51.516;4.000;2022-09-24T04:57:38;3.07;;;2.33;;
6259;SDS011;3163;51.516;4.000;2022-09-24T05:00:06;3.07;;;2.30;;
6259;SDS011;3163;51.516;4.000;2022-09-24T05:02:33;1.77;;;1.67;;
6259;SDS011;3163;51.516;4.000;2022-09-24T05:04:59;2.50;;;2.30;;
6259;SDS011;3163;51.516;4.000;2022-09-24T05:07:25;2.20;;;2.00;;
6259;SDS011;3163;51.516;4.000;2022-09-24T05:09:51;2.63;;;2.30;;
6259;SDS011;3163;51.516;4.000;2022-09-24T05:12:17;2.47;;;2.20;;
6259;SDS011;3163;51.516;4.000;2022-09-24T05:14:44;3.93;;;2.60;;
6259;SDS011;3163;51.516;4.000;2022-09-24T05:17:10;3.40;;;2.13;;
6259;SDS011;3163;51.516;4.000;2022-09-24T05:19:36;2.60;;;2.27;;
6259;SDS011;3163;51.516;4.000;2022-09-24T05:22:02;2.03;;;1.73;;
6259;SDS011;3163;51.516;4.000;2022-09-24T05:24:28;2.87;;;2.57;;
6259;SDS011;3163;51.516;4.000;2022-09-24T05:26:54;3.00;;;2.70;;
6259;SDS011;3163;51.516;4.000;2022-09-24T05:29:36;3.90;;;2.83;;
6259;SDS011;3163;51.516;4.000;2022-09-24T05:32:05;2.37;;;2.23;;
6259;SDS011;3163;51.516;4.000;2022-09-24T05:34:31;2.30;;;2.10;;
6259;SDS011;3163;51.516;4.000;2022-09-24T05:36:57;4.73;;;4.23;;
6259;SDS011;3163;51.516;4.000;2022-09-24T05:39:24;3.60;;;2.90;;
6259;SDS011;3163;51.516;4.000;2022-09-24T05:41:50;2.55;;;2.20;;
6259;SDS011;3163;51.516;4.000;2022-09-24T05:44:16;2.70;;;2.50;;
6259;SDS011;3163;51.516;4.000;2022-09-24T05:46:45;1.83;;;1.73;;
6259;SDS011;3163;51.516;4.000;2022-09-24T05:49:11;3.60;;;2.80;;
6259;SDS011;3163;51.516;4.000;2022-09-24T05:51:37;1.93;;;1.77;;
6259;SDS011;3163;51.516;4.000;2022-09-24T05:54:03;3.00;;;2.70;;
6259;SDS011;3163;51.516;4.000;2022-09-24T05:56:29;2.00;;;1.80;;
6259;SDS011;3163;51.516;4.000;2022-09-24T05:58:55;2.13;;;1.93;;
6259;SDS011;3163;51.516;4.000;2022-09-24T06:01:21;2.47;;;1.73;;
6259;SDS011;3163;51.516;4.000;2022-09-24T06:03:48;1.90;;;1.73;;
6259;SDS011;3163;51.516;4.000;2022-09-24T06:06:14;2.10;;;2.00;;
6259;SDS011;3163;51.516;4.000;2022-09-24T06:08:40;2.30;;;2.10;;
6259;SDS011;3163;51.516;4.000;2022-09-24T06:11:06;2.40;;;1.80;;
6259;SDS011;3163;51.516;4.000;2022-09-24T06:13:32;2.53;;;1.70;;
6259;SDS011;3163;51.516;4.000;2022-09-24T06:15:59;1.83;;;1.73;;
6259;SDS011;3163;51.516;4.000;2022-09-24T06:18:26;2.00;;;1.90;;
6259;SDS011;3163;51.516;4.000;2022-09-24T06:20:52;2.07;;;1.87;;
6259;SDS011;3163;51.516;4.000;2022-09-24T06:23:18;2.10;;;1.90;;
6259;SDS011;3163;51.516;4.000;2022-09-24T06:25:48;1.93;;;1.70;;
6259;SDS011;3163;51.516;4.000;2022-09-24T06:28:14;2.38;;;2.17;;
6259;SDS011;3163;51.516;4.000;2022-09-24T06:30:40;2.07;;;1.87;;
6259;SDS011;3163;51.516;4.000;2022-09-24T06:33:08;2.07;;;1.90;;
6259;SDS011;3163;51.516;4.000;2022-09-24T06:35:34;2.17;;;1.98;;
6259;SDS011;3163;51.516;4.000;2022-09-24T06:38:01;2.50;;;1.80;;
6259;SDS011;3163;51.516;4.000;2022-09-24T06:40:27;2.73;;;2.13;;
6259;SDS011;3163;51.516;4.000;2022-09-24T06:42:54;1.80;;;1.60;;
6259;SDS011;3163;51.516;4.000;2022-09-24T06:45:20;2.17;;;1.73;;
6259;SDS011;3163;51.516;4.000;2022-09-24T06:47:58;2.33;;;2.00;;
6259;SDS011;3163;51.516;4.000;2022-09-24T06:50:25;2.20;;;1.87;;
6259;SDS011;3163;51.516;4.000;2022-09-24T06:52:51;2.37;;;2.10;;
6259;SDS011;3163;51.516;4.000;2022-09-24T06:55:17;2.00;;;1.80;;
6259;SDS011;3163;51.516;4.000;2022-09-24T06:57:43;3.53;;;2.07;;
6259;SDS011;3163;51.516;4.000;2022-09-24T07:00:10;3.07;;;2.10;;
6259;SDS011;3163;51.516;4.000;2022-09-24T07:02:36;2.53;;;2.10;;
6259;SDS011;3163;51.516;4.000;2022-09-24T07:05:03;2.90;;;2.60;;
6259;SDS011;3163;51.516;4.000;2022-09-24T07:07:29;2.43;;;2.17;;
6259;SDS011;3163;51.516;4.000;2022-09-24T07:10:01;2.53;;;1.83;;
6259;SDS011;3163;51.516;4.000;2022-09-24T07:12:28;2.40;;;1.97;;
6259;SDS011;3163;51.516;4.000;2022-09-24T07:14:54;2.65;;;2.45;;
6259;SDS011;3163;51.516;4.000;2022-09-24T07:17:21;3.07;;;2.50;;
6259;SDS011;3163;51.516;4.000;2022-09-24T07:19:47;3.07;;;2.33;;
6259;SDS011;3163;51.516;4.000;2022-09-24T07:22:13;2.58;;;1.73;;
6259;SDS011;3163;51.516;4.000;2022-09-24T07:24:39;2.13;;;1.73;;
6259;SDS011;3163;51.516;4.000;2022-09-24T07:27:05;2.50;;;2.30;;
6259;SDS011;3163;51.516;4.000;2022-09-24T07:29:31;2.30;;;1.93;;
6259;SDS011;3163;51.516;4.000;2022-09-24T07:31:57;2.60;;;1.33;;
6259;SDS011;3163;51.516;4.000;2022-09-24T07:34:23;1.90;;;1.17;;
6259;SDS011;3163;51.516;4.000;2022-09-24T07:36:49;2.87;;;1.73;;
6259;SDS011;3163;51.516;4.000;2022-09-24T07:39:15;1.70;;;1.60;;
6259;SDS011;3163;51.516;4.000;2022-09-24T07:41:42;2.40;;;2.20;;
6259;SDS011;3163;51.516;4.000;2022-09-24T07:44:08;2.20;;;1.80;;
6259;SDS011;3163;51.516;4.000;2022-09-24T07:46:34;1.00;;;1.00;;
6259;SDS011;3163;51.516;4.000;2022-09-24T07:49:00;0.97;;;0.97;;
6259;SDS011;3163;51.516;4.000;2022-09-24T07:51:27;0.70;;;0.70;;
6259;SDS011;3163;51.516;4.000;2022-09-24T07:53:54;2.73;;;1.10;;
6259;SDS011;3163;51.516;4.000;2022-09-24T07:56:20;1.97;;;1.27;;
6259;SDS011;3163;51.516;4.000;2022-09-24T07:58:50;1.07;;;0.90;;
6259;SDS011;3163;51.516;4.000;2022-09-24T08:01:16;0.97;;;0.97;;
6259;SDS011;3163;51.516;4.000;2022-09-24T08:03:43;0.50;;;0.50;;
6259;SDS011;3163;51.516;4.000;2022-09-24T08:06:10;1.77;;;0.80;;
6259;SDS011;3163;51.516;4.000;2022-09-24T08:08:36;2.90;;;1.43;;
6259;SDS011;3163;51.516;4.000;2022-09-24T08:11:06;3.60;;;1.37;;
6259;SDS011;3163;51.516;4.000;2022-09-24T08:13:32;3.73;;;0.90;;
6259;SDS011;3163;51.516;4.000;2022-09-24T08:15:58;0.40;;;0.40;;
6259;SDS011;3163;51.516;4.000;2022-09-24T08:18:25;0.83;;;0.80;;
6259;SDS011;3163;51.516;4.000;2022-09-24T08:20:51;0.63;;;0.57;;
6259;SDS011;3163;51.516;4.000;2022-09-24T08:23:17;0.37;;;0.37;;
6259;SDS011;3163;51.516;4.000;2022-09-24T08:25:44;0.77;;;0.47;;
6259;SDS011;3163;51.516;4.000;2022-09-24T08:28:10;1.23;;;0.70;;
6259;SDS011;3163;51.516;4.000;2022-09-24T08:30:37;0.47;;;0.47;;
6259;SDS011;3163;51.516;4.000;2022-09-24T08:33:06;1.77;;;1.20;;
6259;SDS011;3163;51.516;4.000;2022-09-24T08:35:33;0.40;;;0.37;;
6259;SDS011;3163;51.516;4.000;2022-09-24T08:37:59;0.43;;;0.43;;
6259;SDS011;3163;51.516;4.000;2022-09-24T08:40:26;0.60;;;0.60;;
6259;SDS011;3163;51.516;4.000;2022-09-24T08:45:43;0.60;;;0.60;;
6259;SDS011;3163;51.516;4.000;2022-09-24T08:48:31;1.75;;;0.70;;
6259;SDS011;3163;51.516;4.000;2022-09-24T08:50:59;0.40;;;0.40;;
6259;SDS011;3163;51.516;4.000;2022-09-24T08:53:34;0.30;;;0.30;;
6259;SDS011;3163;51.516;4.000;2022-09-24T08:56:03;1.42;;;0.82;;
6259;SDS011;3163;51.516;4.000;2022-09-24T09:03:38;1.73;;;0.77;;
6259;SDS011;3163;51.516;4.000;2022-09-24T09:11:14;6.40;;;1.73;;
6259;SDS011;3163;51.516;4.000;2022-09-24T09:13:42;13.70;;;2.60;;
6259;SDS011;3163;51.516;4.000;2022-09-24T09:16:15;20.03;;;2.00;;
6259;SDS011;3163;51.516;4.000;2022-09-24T09:18:42;3.20;;;0.77;;
6259;SDS011;3163;51.516;4.000;2022-09-24T09:23:41;0.80;;;0.80;;
6259;SDS011;3163;51.516;4.000;2022-09-24T09:26:11;5.77;;;0.80;;
6259;SDS011;3163;51.516;4.000;2022-09-24T09:28:37;2.67;;;0.77;;
6259;SDS011;3163;51.516;4.000;2022-09-24T09:34:34;1.38;;;0.50;;
6259;SDS011;3163;51.516;4.000;2022-09-24T09:39:07;2.10;;;0.27;;
6259;SDS011;3163;51.516;4.000;2022-09-24T09:41:43;3.50;;;0.65;;
6259;SDS011;3163;51.516;4.000;2022-09-24T09:44:18;1.90;;;0.30;;
6259;SDS011;3163;51.516;4.000;2022-09-24T09:46:48;1.27;;;0.30;;
6259;SDS011;3163;51.516;4.000;2022-09-24T09:49:16;2.33;;;0.30;;
6259;SDS011;3163;51.516;4.000;2022-09-24T09:51:42;1.70;;;0.53;;
6259;SDS011;3163;51.516;4.000;2022-09-24T09:54:12;1.83;;;0.53;;
6259;SDS011;3163;51.516;4.000;2022-09-24T09:56:46;0.17;;;0.17;;
6259;SDS011;3163;51.516;4.000;2022-09-24T09:59:19;0.30;;;0.30;;
6259;SDS011;3163;51.516;4.000;2022-09-24T10:01:46;0.93;;;0.37;;
6259;SDS011;3163;51.516;4.000;2022-09-24T10:07:05;1.60;;;0.50;;
6259;SDS011;3163;51.516;4.000;2022-09-24T10:09:32;1.50;;;0.83;;
6259;SDS011;3163;51.516;4.000;2022-09-24T10:12:08;2.33;;;0.30;;
6259;SDS011;3163;51.516;4.000;2022-09-24T10:14:34;0.40;;;0.33;;
6259;SDS011;3163;51.516;4.000;2022-09-24T10:17:00;0.77;;;0.43;;
6259;SDS011;3163;51.516;4.000;2022-09-24T10:19:31;1.40;;;0.33;;
6259;SDS011;3163;51.516;4.000;2022-09-24T10:22:05;0.90;;;0.43;;
6259;SDS011;3163;51.516;4.000;2022-09-24T10:24:32;1.13;;;0.20;;
6259;SDS011;3163;51.516;4.000;2022-09-24T10:26:59;0.50;;;0.50;;
6259;SDS011;3163;51.516;4.000;2022-09-24T10:29:26;0.63;;;0.60;;
6259;SDS011;3163;51.516;4.000;2022-09-24T10:32:15;1.30;;;0.33;;
6259;SDS011;3163;51.516;4.000;2022-09-24T10:34:41;1.20;;;0.40;;
6259;SDS011;3163;51.516;4.000;2022-09-24T10:37:12;0.20;;;0.20;;
6259;SDS011;3163;51.516;4.000;2022-09-24T10:39:39;0.87;;;0.67;;
6259;SDS011;3163;51.516;4.000;2022-09-24T10:42:05;1.03;;;0.30;;
6259;SDS011;3163;51.516;4.000;2022-09-24T10:44:35;1.23;;;0.43;;
6259;SDS011;3163;51.516;4.000;2022-09-24T10:52:01;0.40;;;0.30;;
6259;SDS011;3163;51.516;4.000;2022-09-24T10:57:11;2.37;;;0.67;;
6259;SDS011;3163;51.516;4.000;2022-09-24T10:59:50;0.10;;;0.10;;
6259;SDS011;3163;51.516;4.000;2022-09-24T11:02:26;3.10;;;0.20;;
6259;SDS011;3163;51.516;4.000;2022-09-24T11:04:55;0.37;;;0.37;;
6259;SDS011;3163;51.516;4.000;2022-09-24T11:09:55;1.67;;;0.50;;
6259;SDS011;3163;51.516;4.000;2022-09-24T11:12:27;0.73;;;0.50;;
6259;SDS011;3163;51.516;4.000;2022-09-24T11:15:09;1.13;;;0.77;;
6259;SDS011;3163;51.516;4.000;2022-09-24T11:25:48;1.03;;;0.57;;
6259;SDS011;3163;51.516;4.000;2022-09-24T11:27:58;0.13;;;0.10;;
6259;SDS011;3163;51.516;4.000;2022-09-24T11:41:09;1.13;;;0.30;;
6259;SDS011;3163;51.516;4.000;2022-09-24T11:48:53;0.60;;;0.30;;
6259;SDS011;3163;51.516;4.000;2022-09-24T11:59:06;0.10;;;0.10;;
6259;SDS011;3163;51.516;4.000;2022-09-24T12:01:36;0.43;;;0.30;;
6259;SDS011;3163;51.516;4.000;2022-09-24T12:06:53;0.83;;;0.63;;
6259;SDS011;3163;51.516;4.000;2022-09-24T12:09:38;0.10;;;0.10;;
6259;SDS011;3163;51.516;4.000;2022-09-24T12:12:09;0.77;;;0.77;;
6259;SDS011;3163;51.516;4.000;2022-09-24T12:14:43;0.20;;;0.20;;
6259;SDS011;3163;51.516;4.000;2022-09-24T12:17:25;0.80;;;0.33;;
6259;SDS011;3163;51.516;4.000;2022-09-24T12:19:57;0.53;;;0.40;;
6259;SDS011;3163;51.516;4.000;2022-09-24T12:22:24;0.27;;;0.13;;
6259;SDS011;3163;51.516;4.000;2022-09-24T12:24:52;0.20;;;0.20;;
6259;SDS011;3163;51.516;4.000;2022-09-24T12:27:19;0.00;;;0.00;;
6259;SDS011;3163;51.516;4.000;2022-09-24T12:29:49;0.30;;;0.30;;
6259;SDS011;3163;51.516;4.000;2022-09-24T12:37:48;2.77;;;0.60;;
6259;SDS011;3163;51.516;4.000;2022-09-24T12:42:54;0.77;;;0.53;;
6259;SDS011;3163;51.516;4.000;2022-09-24T12:45:22;0.60;;;0.33;;
6259;SDS011;3163;51.516;4.000;2022-09-24T12:47:50;1.17;;;0.20;;
6259;SDS011;3163;51.516;4.000;2022-09-24T12:50:39;2.13;;;0.40;;
6259;SDS011;3163;51.516;4.000;2022-09-24T12:53:16;0.57;;;0.17;;
6259;SDS011;3163;51.516;4.000;2022-09-24T12:55:46;0.40;;;0.40;;
6259;SDS011;3163;51.516;4.000;2022-09-24T13:01:25;1.30;;;0.30;;
6259;SDS011;3163;51.516;4.000;2022-09-24T13:06:36;0.10;;;0.10;;
6259;SDS011;3163;51.516;4.000;2022-09-24T13:09:21;1.30;;;0.33;;
6259;SDS011;3163;51.516;4.000;2022-09-24T13:11:48;0.20;;;0.20;;
6259;SDS011;3163;51.516;4.000;2022-09-24T13:14:25;0.10;;;0.10;;
6259;SDS011;3163;51.516;4.000;2022-09-24T13:16:54;0.20;;;0.20;;
6259;SDS011;3163;51.516;4.000;2022-09-24T13:21:52;0.13;;;0.13;;
6259;SDS011;3163;51.516;4.000;2022-09-24T13:24:29;1.13;;;0.80;;
6259;SDS011;3163;51.516;4.000;2022-09-24T13:29:40;4.47;;;0.80;;
6259;SDS011;3163;51.516;4.000;2022-09-24T13:32:07;0.70;;;0.30;;
6259;SDS011;3163;51.516;4.000;2022-09-24T13:34:35;0.50;;;0.20;;
6259;SDS011;3163;51.516;4.000;2022-09-24T13:39:34;1.40;;;0.43;;
6259;SDS011;3163;51.516;4.000;2022-09-24T13:47:04;1.33;;;0.70;;
6259;SDS011;3163;51.516;4.000;2022-09-24T13:49:36;0.43;;;0.23;;
6259;SDS011;3163;51.516;4.000;2022-09-24T13:52:06;0.00;;;0.00;;
6259;SDS011;3163;51.516;4.000;2022-09-24T13:54:34;0.17;;;0.17;;
6259;SDS011;3163;51.516;4.000;2022-09-24T13:57:14;0.70;;;0.40;;
6259;SDS011;3163;51.516;4.000;2022-09-24T13:59:44;2.13;;;0.87;;
6259;SDS011;3163;51.516;4.000;2022-09-24T14:02:20;0.40;;;0.30;;
6259;SDS011;3163;51.516;4.000;2022-09-24T14:04:47;1.60;;;1.17;;
6259;SDS011;3163;51.516;4.000;2022-09-24T14:07:18;0.50;;;0.20;;
6259;SDS011;3163;51.516;4.000;2022-09-24T14:09:44;1.07;;;0.93;;
6259;SDS011;3163;51.516;4.000;2022-09-24T14:14:46;0.40;;;0.40;;
6259;SDS011;3163;51.516;4.000;2022-09-24T14:17:15;0.20;;;0.20;;
6259;SDS011;3163;51.516;4.000;2022-09-24T14:19:41;0.93;;;0.47;;
6259;SDS011;3163;51.516;4.000;2022-09-24T14:22:15;6.33;;;0.47;;
6259;SDS011;3163;51.516;4.000;2022-09-24T14:24:52;1.30;;;0.43;;
6259;SDS011;3163;51.516;4.000;2022-09-24T14:27:19;0.10;;;0.10;;
6259;SDS011;3163;51.516;4.000;2022-09-24T14:30:15;0.40;;;0.20;;
6259;SDS011;3163;51.516;4.000;2022-09-24T14:32:36;2.57;;;0.50;;
6259;SDS011;3163;51.516;4.000;2022-09-24T14:35:04;0.83;;;0.57;;
6259;SDS011;3163;51.516;4.000;2022-09-24T14:37:38;1.93;;;0.87;;
6259;SDS011;3163;51.516;4.000;2022-09-24T14:40:06;1.07;;;0.83;;
6259;SDS011;3163;51.516;4.000;2022-09-24T14:42:40;0.77;;;0.40;;
6259;SDS011;3163;51.516;4.000;2022-09-24T14:45:08;1.13;;;0.60;;
6259;SDS011;3163;51.516;4.000;2022-09-24T14:47:35;3.27;;;0.93;;
6259;SDS011;3163;51.516;4.000;2022-09-24T14:50:02;0.87;;;0.40;;
6259;SDS011;3163;51.516;4.000;2022-09-24T14:52:31;2.67;;;0.40;;
6259;SDS011;3163;51.516;4.000;2022-09-24T14:55:14;0.60;;;0.57;;
6259;SDS011;3163;51.516;4.000;2022-09-24T14:57:41;4.50;;;0.80;;
6259;SDS011;3163;51.516;4.000;2022-09-24T15:00:21;1.40;;;0.60;;
6259;SDS011;3163;51.516;4.000;2022-09-24T15:02:48;2.45;;;0.90;;
6259;SDS011;3163;51.516;4.000;2022-09-24T15:05:14;2.33;;;0.90;;
6259;SDS011;3163;51.516;4.000;2022-09-24T15:07:40;2.07;;;0.57;;
6259;SDS011;3163;51.516;4.000;2022-09-24T15:10:16;3.35;;;0.80;;
6259;SDS011;3163;51.516;4.000;2022-09-24T15:12:46;1.10;;;0.40;;
6259;SDS011;3163;51.516;4.000;2022-09-24T15:17:42;0.93;;;0.40;;
6259;SDS011;3163;51.516;4.000;2022-09-24T15:20:08;2.30;;;0.60;;
6259;SDS011;3163;51.516;4.000;2022-09-24T15:22:35;0.77;;;0.33;;
6259;SDS011;3163;51.516;4.000;2022-09-24T15:25:01;0.60;;;0.60;;
6259;SDS011;3163;51.516;4.000;2022-09-24T15:27:29;0.30;;;0.30;;
6259;SDS011;3163;51.516;4.000;2022-09-24T15:29:56;0.50;;;0.37;;
6259;SDS011;3163;51.516;4.000;2022-09-24T15:32:24;2.77;;;0.40;;
6259;SDS011;3163;51.516;4.000;2022-09-24T15:34:51;1.70;;;0.60;;
6259;SDS011;3163;51.516;4.000;2022-09-24T15:37:18;2.10;;;0.40;;
6259;SDS011;3163;51.516;4.000;2022-09-24T15:39:45;0.63;;;0.50;;
6259;SDS011;3163;51.516;4.000;2022-09-24T15:44:41;0.73;;;0.50;;
6259;SDS011;3163;51.516;4.000;2022-09-24T15:47:08;0.73;;;0.53;;
6259;SDS011;3163;51.516;4.000;2022-09-24T15:49:34;4.30;;;1.08;;
6259;SDS011;3163;51.516;4.000;2022-09-24T15:52:01;0.30;;;0.30;;
6259;SDS011;3163;51.516;4.000;2022-09-24T15:54:27;2.63;;;0.20;;
6259;SDS011;3163;51.516;4.000;2022-09-24T15:56:53;2.45;;;0.32;;
6259;SDS011;3163;51.516;4.000;2022-09-24T15:59:20;0.40;;;0.30;;
6259;SDS011;3163;51.516;4.000;2022-09-24T16:01:47;0.97;;;0.60;;
6259;SDS011;3163;51.516;4.000;2022-09-24T16:04:14;0.40;;;0.40;;
6259;SDS011;3163;51.516;4.000;2022-09-24T16:06:41;0.33;;;0.33;;
6259;SDS011;3163;51.516;4.000;2022-09-24T16:09:07;0.80;;;0.40;;
6259;SDS011;3163;51.516;4.000;2022-09-24T16:11:33;1.83;;;0.73;;
6259;SDS011;3163;51.516;4.000;2022-09-24T16:13:59;2.87;;;0.63;;
6259;SDS011;3163;51.516;4.000;2022-09-24T16:16:25;1.03;;;0.53;;
6259;SDS011;3163;51.516;4.000;2022-09-24T16:18:52;1.50;;;0.50;;
6259;SDS011;3163;51.516;4.000;2022-09-24T16:21:18;1.23;;;0.30;;
6259;SDS011;3163;51.516;4.000;2022-09-24T16:23:44;1.17;;;0.43;;
6259;SDS011;3163;51.516;4.000;2022-09-24T16:26:10;0.80;;;0.57;;
6259;SDS011;3163;51.516;4.000;2022-09-24T16:28:36;0.37;;;0.30;;
6259;SDS011;3163;51.516;4.000;2022-09-24T16:31:05;0.87;;;0.40;;
6259;SDS011;3163;51.516;4.000;2022-09-24T16:33:35;1.27;;;0.30;;
6259;SDS011;3163;51.516;4.000;2022-09-24T16:36:05;2.08;;;0.60;;
6259;SDS011;3163;51.516;4.000;2022-09-24T16:38:35;0.80;;;0.43;;
6259;SDS011;3163;51.516;4.000;2022-09-24T16:41:01;1.07;;;0.37;;
6259;SDS011;3163;51.516;4.000;2022-09-24T16:43:27;1.60;;;0.30;;
6259;SDS011;3163;51.516;4.000;2022-09-24T16:45:58;0.30;;;0.30;;
6259;SDS011;3163;51.516;4.000;2022-09-24T16:48:25;0.20;;;0.20;;
6259;SDS011;3163;51.516;4.000;2022-09-24T16:50:51;0.47;;;0.30;;
6259;SDS011;3163;51.516;4.000;2022-09-24T16:53:17;3.30;;;0.80;;
6259;SDS011;3163;51.516;4.000;2022-09-24T16:55:43;6.70;;;0.50;;
6259;SDS011;3163;51.516;4.000;2022-09-24T16:58:09;1.33;;;0.30;;
6259;SDS011;3163;51.516;4.000;2022-09-24T17:00:35;0.37;;;0.37;;
6259;SDS011;3163;51.516;4.000;2022-09-24T17:03:01;0.20;;;0.20;;
6259;SDS011;3163;51.516;4.000;2022-09-24T17:05:27;0.63;;;0.30;;
6259;SDS011;3163;51.516;4.000;2022-09-24T17:07:53;1.33;;;0.40;;
6259;SDS011;3163;51.516;4.000;2022-09-24T17:10:19;2.63;;;0.33;;
6259;SDS011;3163;51.516;4.000;2022-09-24T17:12:49;0.50;;;0.23;;
6259;SDS011;3163;51.516;4.000;2022-09-24T17:15:17;0.73;;;0.40;;
6259;SDS011;3163;51.516;4.000;2022-09-24T17:17:44;0.80;;;0.23;;
6259;SDS011;3163;51.516;4.000;2022-09-24T17:20:10;0.33;;;0.33;;